Главная страница
METAR-TAF:

METAR-TAF

Аэропорты :

Малабо, Экваториальная Гвинея

широта: 03-45-18N, долгота: 08-42-31E, высота над уровнем моря: 23 м

Текущие метеонаблюдения

Эта сводка был подготовлена 27 минут назад, в 02:00 UTC
Ветер 5 Узел от западный-юго-западный
Температура 22°C
Влажность 83%
Давление 1011 hPa
Видимость 10 км и более
небольшая облачность на высоте 1300 фута

METAR: FGSL 260200Z 24005KT 9999 FEW013 22/19 Q1011 NOSIG

Время: 03:27 (02:27 UTC)

Прогноз

Эта сводка был подготовлена 3 часа и 27 минут назад, в 23:00 UTC
Прогноз действительный с 26-го 00 UTC до 27-го 06 UTC
Ветер 6 Узел от западный-юго-западный
Видимость: 7000 м
небольшая облачность на высоте 1300 фута
временами
С 26-го 04 UTC до 26-го 08 UTC
Видимость: 4000 м
дымка
временами
С 26-го 10 UTC до 26-го 18 UTC
Видимость: 4500 м
мгла

TAF: FGSL 252300Z 2600/2706 24006KT 7000 FEW013 TEMPO 2604/2608 4000 BR TEMPO 2610/2618 4500 HZ

Метеонаблюдения и прогнозы для более 4000 аэропортов (сводки METAR и TAF).

Имеющиеся станции представлены на карте желтыми и красными точками.

Чтобы увидеть название станции, наведите на нее мышь.

Затем щелкните, чтобы увидеть метеонаблюдения и метеопрогнозы.

Управление картой: чтобы увеличить масштаб, щелкните зеленые кнопки с черным крестиком; чтобы уменьшить масштаб, щелкните зеленую кнопку с тире; для просмотра соседних карт щелкайте зеленые стрелки.


METAR-TAF: